sensor_id;sensor_type;location;lat;lon;timestamp;P1;durP1;ratioP1;P2;durP2;ratioP2
44564;SDS011;30275;51.822;-0.326;2022-12-07T00:01:20;13.82;;;6.43;;
44564;SDS011;30275;51.822;-0.326;2022-12-07T00:03:51;9.23;;;5.72;;
44564;SDS011;30275;51.822;-0.326;2022-12-07T00:06:19;14.20;;;6.47;;
44564;SDS011;30275;51.822;-0.326;2022-12-07T00:08:45;13.90;;;6.53;;
44564;SDS011;30275;51.822;-0.326;2022-12-07T00:11:13;15.90;;;6.05;;
44564;SDS011;30275;51.822;-0.326;2022-12-07T00:13:41;12.82;;;5.93;;
44564;SDS011;30275;51.822;-0.326;2022-12-07T00:16:10;11.90;;;5.45;;
44564;SDS011;30275;51.822;-0.326;2022-12-07T00:18:38;12.83;;;5.87;;
44564;SDS011;30275;51.822;-0.326;2022-12-07T00:21:05;15.25;;;6.13;;
44564;SDS011;30275;51.822;-0.326;2022-12-07T00:23:34;13.70;;;6.75;;
44564;SDS011;30275;51.822;-0.326;2022-12-07T00:26:07;15.50;;;6.60;;
44564;SDS011;30275;51.822;-0.326;2022-12-07T00:28:37;13.40;;;6.57;;
44564;SDS011;30275;51.822;-0.326;2022-12-07T00:31:10;12.32;;;6.65;;
44564;SDS011;30275;51.822;-0.326;2022-12-07T00:33:38;17.55;;;6.95;;
44564;SDS011;30275;51.822;-0.326;2022-12-07T00:36:05;13.65;;;7.07;;
44564;SDS011;30275;51.822;-0.326;2022-12-07T00:38:33;16.55;;;6.95;;
44564;SDS011;30275;51.822;-0.326;2022-12-07T00:41:02;12.82;;;6.60;;
44564;SDS011;30275;51.822;-0.326;2022-12-07T00:43:30;12.75;;;5.95;;
44564;SDS011;30275;51.822;-0.326;2022-12-07T00:45:56;16.50;;;7.47;;
44564;SDS011;30275;51.822;-0.326;2022-12-07T00:48:22;18.00;;;6.43;;
44564;SDS011;30275;51.822;-0.326;2022-12-07T00:50:49;12.88;;;7.70;;
44564;SDS011;30275;51.822;-0.326;2022-12-07T00:53:15;16.77;;;6.50;;
44564;SDS011;30275;51.822;-0.326;2022-12-07T00:55:41;13.80;;;6.57;;
44564;SDS011;30275;51.822;-0.326;2022-12-07T00:58:07;13.63;;;6.55;;
44564;SDS011;30275;51.822;-0.326;2022-12-07T01:00:34;12.30;;;6.10;;
44564;SDS011;30275;51.822;-0.326;2022-12-07T01:03:02;18.40;;;8.05;;
44564;SDS011;30275;51.822;-0.326;2022-12-07T01:05:28;19.02;;;7.68;;
44564;SDS011;30275;51.822;-0.326;2022-12-07T01:07:53;13.70;;;6.43;;
44564;SDS011;30275;51.822;-0.326;2022-12-07T01:10:19;13.77;;;7.53;;
44564;SDS011;30275;51.822;-0.326;2022-12-07T01:12:45;16.58;;;8.13;;
44564;SDS011;30275;51.822;-0.326;2022-12-07T01:15:10;16.98;;;7.78;;
44564;SDS011;30275;51.822;-0.326;2022-12-07T01:17:36;16.95;;;7.38;;
44564;SDS011;30275;51.822;-0.326;2022-12-07T01:20:02;15.45;;;7.63;;
44564;SDS011;30275;51.822;-0.326;2022-12-07T01:22:28;16.58;;;7.40;;
44564;SDS011;30275;51.822;-0.326;2022-12-07T01:24:54;16.85;;;7.43;;
44564;SDS011;30275;51.822;-0.326;2022-12-07T01:27:20;15.85;;;6.75;;
44564;SDS011;30275;51.822;-0.326;2022-12-07T01:29:45;16.33;;;7.85;;
44564;SDS011;30275;51.822;-0.326;2022-12-07T01:32:11;18.08;;;8.27;;
44564;SDS011;30275;51.822;-0.326;2022-12-07T01:34:37;15.63;;;7.88;;
44564;SDS011;30275;51.822;-0.326;2022-12-07T01:37:03;16.05;;;8.70;;
44564;SDS011;30275;51.822;-0.326;2022-12-07T01:39:29;19.63;;;9.55;;
44564;SDS011;30275;51.822;-0.326;2022-12-07T01:41:55;16.88;;;8.20;;
44564;SDS011;30275;51.822;-0.326;2022-12-07T01:44:24;17.20;;;8.55;;
44564;SDS011;30275;51.822;-0.326;2022-12-07T01:46:55;22.48;;;8.75;;
44564;SDS011;30275;51.822;-0.326;2022-12-07T01:52:24;18.25;;;9.05;;
44564;SDS011;30275;51.822;-0.326;2022-12-07T01:54:54;24.20;;;8.77;;
44564;SDS011;30275;51.822;-0.326;2022-12-07T01:57:23;17.65;;;8.90;;
44564;SDS011;30275;51.822;-0.326;2022-12-07T01:59:50;26.13;;;8.90;;
44564;SDS011;30275;51.822;-0.326;2022-12-07T02:02:18;20.73;;;7.80;;
44564;SDS011;30275;51.822;-0.326;2022-12-07T02:04:51;16.65;;;8.15;;
44564;SDS011;30275;51.822;-0.326;2022-12-07T02:07:17;16.27;;;8.25;;
44564;SDS011;30275;51.822;-0.326;2022-12-07T02:09:44;25.10;;;9.20;;
44564;SDS011;30275;51.822;-0.326;2022-12-07T02:12:10;18.83;;;9.05;;
44564;SDS011;30275;51.822;-0.326;2022-12-07T02:14:36;16.90;;;8.48;;
44564;SDS011;30275;51.822;-0.326;2022-12-07T02:17:04;22.40;;;9.65;;
44564;SDS011;30275;51.822;-0.326;2022-12-07T02:31:04;19.27;;;7.70;;
44564;SDS011;30275;51.822;-0.326;2022-12-07T02:36:13;20.27;;;9.45;;
44564;SDS011;30275;51.822;-0.326;2022-12-07T02:41:43;16.95;;;8.30;;
44564;SDS011;30275;51.822;-0.326;2022-12-07T02:44:17;20.73;;;8.45;;
44564;SDS011;30275;51.822;-0.326;2022-12-07T02:46:58;15.40;;;7.57;;
44564;SDS011;30275;51.822;-0.326;2022-12-07T02:49:31;18.60;;;8.35;;
44564;SDS011;30275;51.822;-0.326;2022-12-07T02:51:57;18.30;;;8.23;;
44564;SDS011;30275;51.822;-0.326;2022-12-07T02:54:23;17.90;;;8.73;;
44564;SDS011;30275;51.822;-0.326;2022-12-07T03:00:13;22.15;;;8.80;;
44564;SDS011;30275;51.822;-0.326;2022-12-07T03:05:40;14.35;;;7.90;;
44564;SDS011;30275;51.822;-0.326;2022-12-07T03:08:31;14.98;;;8.23;;
44564;SDS011;30275;51.822;-0.326;2022-12-07T03:11:02;16.88;;;8.60;;
44564;SDS011;30275;51.822;-0.326;2022-12-07T03:13:42;20.08;;;8.23;;
44564;SDS011;30275;51.822;-0.326;2022-12-07T03:16:30;16.25;;;8.32;;
44564;SDS011;30275;51.822;-0.326;2022-12-07T03:19:18;15.13;;;8.48;;
44564;SDS011;30275;51.822;-0.326;2022-12-07T03:21:55;15.98;;;7.90;;
44564;SDS011;30275;51.822;-0.326;2022-12-07T03:24:26;15.45;;;7.97;;
44564;SDS011;30275;51.822;-0.326;2022-12-07T03:27:05;21.48;;;7.35;;
44564;SDS011;30275;51.822;-0.326;2022-12-07T03:29:49;17.05;;;7.82;;
44564;SDS011;30275;51.822;-0.326;2022-12-07T03:32:25;17.35;;;7.72;;
44564;SDS011;30275;51.822;-0.326;2022-12-07T03:35:03;15.70;;;7.88;;
44564;SDS011;30275;51.822;-0.326;2022-12-07T03:37:34;14.30;;;7.93;;
44564;SDS011;30275;51.822;-0.326;2022-12-07T03:40:30;20.42;;;7.90;;
44564;SDS011;30275;51.822;-0.326;2022-12-07T03:43:02;15.52;;;8.27;;
44564;SDS011;30275;51.822;-0.326;2022-12-07T03:45:42;17.25;;;8.23;;
44564;SDS011;30275;51.822;-0.326;2022-12-07T03:48:20;13.73;;;7.47;;
44564;SDS011;30275;51.822;-0.326;2022-12-07T03:50:54;14.52;;;6.88;;
44564;SDS011;30275;51.822;-0.326;2022-12-07T03:56:19;18.40;;;7.28;;
44564;SDS011;30275;51.822;-0.326;2022-12-07T03:58:46;17.08;;;7.60;;
44564;SDS011;30275;51.822;-0.326;2022-12-07T04:01:13;18.25;;;7.22;;
44564;SDS011;30275;51.822;-0.326;2022-12-07T04:03:39;21.95;;;7.65;;
44564;SDS011;30275;51.822;-0.326;2022-12-07T04:06:04;15.75;;;7.60;;
44564;SDS011;30275;51.822;-0.326;2022-12-07T04:08:31;13.32;;;6.85;;
44564;SDS011;30275;51.822;-0.326;2022-12-07T04:10:56;15.73;;;7.20;;
44564;SDS011;30275;51.822;-0.326;2022-12-07T04:13:22;15.15;;;8.52;;
44564;SDS011;30275;51.822;-0.326;2022-12-07T04:15:48;17.98;;;7.78;;
44564;SDS011;30275;51.822;-0.326;2022-12-07T04:18:13;16.70;;;8.75;;
44564;SDS011;30275;51.822;-0.326;2022-12-07T04:20:39;19.00;;;8.13;;
44564;SDS011;30275;51.822;-0.326;2022-12-07T04:23:05;21.75;;;8.60;;
44564;SDS011;30275;51.822;-0.326;2022-12-07T04:25:30;18.10;;;8.52;;
44564;SDS011;30275;51.822;-0.326;2022-12-07T04:27:56;19.27;;;8.63;;
44564;SDS011;30275;51.822;-0.326;2022-12-07T04:30:21;19.42;;;9.32;;
44564;SDS011;30275;51.822;-0.326;2022-12-07T04:32:47;16.27;;;9.02;;
44564;SDS011;30275;51.822;-0.326;2022-12-07T04:35:13;16.35;;;7.10;;
44564;SDS011;30275;51.822;-0.326;2022-12-07T04:37:38;14.18;;;7.90;;
44564;SDS011;30275;51.822;-0.326;2022-12-07T04:40:05;18.45;;;8.20;;
44564;SDS011;30275;51.822;-0.326;2022-12-07T04:42:36;17.92;;;8.40;;
44564;SDS011;30275;51.822;-0.326;2022-12-07T04:45:02;16.52;;;8.02;;
44564;SDS011;30275;51.822;-0.326;2022-12-07T04:47:27;17.42;;;9.20;;
44564;SDS011;30275;51.822;-0.326;2022-12-07T04:49:53;14.80;;;8.75;;
44564;SDS011;30275;51.822;-0.326;2022-12-07T04:52:18;17.00;;;8.65;;
44564;SDS011;30275;51.822;-0.326;2022-12-07T04:54:44;16.08;;;8.90;;
44564;SDS011;30275;51.822;-0.326;2022-12-07T04:57:10;19.08;;;8.25;;
44564;SDS011;30275;51.822;-0.326;2022-12-07T04:59:35;16.83;;;8.98;;
44564;SDS011;30275;51.822;-0.326;2022-12-07T05:02:01;13.93;;;8.07;;
44564;SDS011;30275;51.822;-0.326;2022-12-07T05:04:26;14.63;;;7.88;;
44564;SDS011;30275;51.822;-0.326;2022-12-07T05:06:52;17.80;;;8.07;;
44564;SDS011;30275;51.822;-0.326;2022-12-07T05:09:18;19.42;;;8.50;;
44564;SDS011;30275;51.822;-0.326;2022-12-07T05:11:43;17.63;;;7.78;;
44564;SDS011;30275;51.822;-0.326;2022-12-07T05:16:37;16.35;;;7.93;;
44564;SDS011;30275;51.822;-0.326;2022-12-07T05:19:04;14.80;;;7.75;;
44564;SDS011;30275;51.822;-0.326;2022-12-07T05:21:30;16.13;;;7.60;;
44564;SDS011;30275;51.822;-0.326;2022-12-07T05:23:55;20.85;;;9.18;;
44564;SDS011;30275;51.822;-0.326;2022-12-07T05:26:21;19.20;;;8.85;;
44564;SDS011;30275;51.822;-0.326;2022-12-07T05:28:53;15.23;;;8.23;;
44564;SDS011;30275;51.822;-0.326;2022-12-07T05:31:20;15.77;;;8.98;;
44564;SDS011;30275;51.822;-0.326;2022-12-07T05:33:46;19.30;;;8.15;;
44564;SDS011;30275;51.822;-0.326;2022-12-07T05:36:12;16.02;;;8.00;;
44564;SDS011;30275;51.822;-0.326;2022-12-07T05:38:38;15.25;;;7.55;;
44564;SDS011;30275;51.822;-0.326;2022-12-07T05:41:04;16.83;;;8.27;;
44564;SDS011;30275;51.822;-0.326;2022-12-07T05:43:31;15.65;;;7.90;;
44564;SDS011;30275;51.822;-0.326;2022-12-07T05:45:58;16.30;;;8.40;;
44564;SDS011;30275;51.822;-0.326;2022-12-07T05:48:24;17.17;;;7.75;;
44564;SDS011;30275;51.822;-0.326;2022-12-07T05:50:50;17.95;;;8.25;;
44564;SDS011;30275;51.822;-0.326;2022-12-07T05:53:17;21.30;;;8.05;;
44564;SDS011;30275;51.822;-0.326;2022-12-07T05:55:43;14.32;;;7.68;;
44564;SDS011;30275;51.822;-0.326;2022-12-07T05:58:09;20.75;;;8.98;;
44564;SDS011;30275;51.822;-0.326;2022-12-07T06:00:54;14.65;;;8.25;;
44564;SDS011;30275;51.822;-0.326;2022-12-07T06:03:20;20.52;;;8.70;;
44564;SDS011;30275;51.822;-0.326;2022-12-07T06:05:46;18.30;;;8.90;;
44564;SDS011;30275;51.822;-0.326;2022-12-07T06:08:11;15.85;;;8.25;;
44564;SDS011;30275;51.822;-0.326;2022-12-07T06:10:39;18.25;;;8.00;;
44564;SDS011;30275;51.822;-0.326;2022-12-07T06:13:06;19.35;;;7.97;;
44564;SDS011;30275;51.822;-0.326;2022-12-07T06:15:32;19.00;;;8.55;;
44564;SDS011;30275;51.822;-0.326;2022-12-07T06:18:00;19.25;;;8.45;;
44564;SDS011;30275;51.822;-0.326;2022-12-07T06:20:25;21.08;;;8.52;;
44564;SDS011;30275;51.822;-0.326;2022-12-07T06:22:51;19.73;;;8.75;;
44564;SDS011;30275;51.822;-0.326;2022-12-07T06:25:16;21.60;;;8.70;;
44564;SDS011;30275;51.822;-0.326;2022-12-07T06:27:42;21.17;;;10.43;;
44564;SDS011;30275;51.822;-0.326;2022-12-07T06:30:08;19.95;;;9.45;;
44564;SDS011;30275;51.822;-0.326;2022-12-07T06:32:34;19.17;;;8.95;;
44564;SDS011;30275;51.822;-0.326;2022-12-07T06:35:01;26.17;;;10.07;;
44564;SDS011;30275;51.822;-0.326;2022-12-07T06:37:26;16.95;;;9.35;;
44564;SDS011;30275;51.822;-0.326;2022-12-07T06:39:52;26.40;;;9.75;;
44564;SDS011;30275;51.822;-0.326;2022-12-07T06:42:18;26.63;;;11.07;;
44564;SDS011;30275;51.822;-0.326;2022-12-07T06:44:43;25.08;;;10.32;;
44564;SDS011;30275;51.822;-0.326;2022-12-07T06:47:09;21.83;;;9.40;;
44564;SDS011;30275;51.822;-0.326;2022-12-07T06:49:34;24.17;;;9.75;;
44564;SDS011;30275;51.822;-0.326;2022-12-07T06:52:00;18.48;;;8.57;;
44564;SDS011;30275;51.822;-0.326;2022-12-07T06:54:26;22.35;;;10.50;;
44564;SDS011;30275;51.822;-0.326;2022-12-07T06:56:52;22.80;;;10.57;;
44564;SDS011;30275;51.822;-0.326;2022-12-07T06:59:17;22.98;;;9.90;;
44564;SDS011;30275;51.822;-0.326;2022-12-07T07:01:43;25.02;;;10.18;;
44564;SDS011;30275;51.822;-0.326;2022-12-07T07:04:09;19.88;;;9.35;;
44564;SDS011;30275;51.822;-0.326;2022-12-07T07:06:34;24.23;;;11.10;;
44564;SDS011;30275;51.822;-0.326;2022-12-07T07:09:00;22.67;;;11.10;;
44564;SDS011;30275;51.822;-0.326;2022-12-07T07:11:27;20.52;;;11.07;;
44564;SDS011;30275;51.822;-0.326;2022-12-07T07:13:52;23.23;;;10.20;;
44564;SDS011;30275;51.822;-0.326;2022-12-07T07:16:18;18.92;;;9.02;;
44564;SDS011;30275;51.822;-0.326;2022-12-07T07:18:44;22.25;;;11.35;;
44564;SDS011;30275;51.822;-0.326;2022-12-07T07:21:10;21.45;;;9.82;;
44564;SDS011;30275;51.822;-0.326;2022-12-07T07:23:35;19.63;;;9.43;;
44564;SDS011;30275;51.822;-0.326;2022-12-07T07:26:01;25.38;;;10.13;;
44564;SDS011;30275;51.822;-0.326;2022-12-07T07:28:27;16.63;;;8.85;;
44564;SDS011;30275;51.822;-0.326;2022-12-07T07:30:52;18.40;;;9.07;;
44564;SDS011;30275;51.822;-0.326;2022-12-07T07:33:18;18.27;;;10.38;;
44564;SDS011;30275;51.822;-0.326;2022-12-07T07:35:43;28.35;;;11.15;;
44564;SDS011;30275;51.822;-0.326;2022-12-07T07:38:09;17.80;;;9.48;;
44564;SDS011;30275;51.822;-0.326;2022-12-07T07:40:35;18.98;;;9.68;;
44564;SDS011;30275;51.822;-0.326;2022-12-07T07:43:01;18.80;;;8.95;;
44564;SDS011;30275;51.822;-0.326;2022-12-07T07:45:27;23.73;;;9.80;;
44564;SDS011;30275;51.822;-0.326;2022-12-07T07:47:53;16.98;;;8.73;;
44564;SDS011;30275;51.822;-0.326;2022-12-07T07:50:19;19.23;;;8.38;;
44564;SDS011;30275;51.822;-0.326;2022-12-07T07:52:45;20.42;;;9.82;;
44564;SDS011;30275;51.822;-0.326;2022-12-07T07:55:11;17.20;;;9.00;;
44564;SDS011;30275;51.822;-0.326;2022-12-07T07:57:37;19.00;;;9.45;;
44564;SDS011;30275;51.822;-0.326;2022-12-07T08:00:05;19.65;;;9.60;;
44564;SDS011;30275;51.822;-0.326;2022-12-07T08:02:36;18.98;;;9.30;;
44564;SDS011;30275;51.822;-0.326;2022-12-07T08:05:01;20.42;;;9.38;;
44564;SDS011;30275;51.822;-0.326;2022-12-07T08:07:27;21.08;;;10.15;;
44564;SDS011;30275;51.822;-0.326;2022-12-07T08:09:53;21.35;;;9.35;;
44564;SDS011;30275;51.822;-0.326;2022-12-07T08:12:19;23.08;;;10.38;;
44564;SDS011;30275;51.822;-0.326;2022-12-07T08:14:45;20.00;;;9.93;;
44564;SDS011;30275;51.822;-0.326;2022-12-07T08:17:10;26.10;;;11.27;;
44564;SDS011;30275;51.822;-0.326;2022-12-07T08:19:37;23.08;;;10.90;;
44564;SDS011;30275;51.822;-0.326;2022-12-07T08:22:03;21.00;;;10.15;;
44564;SDS011;30275;51.822;-0.326;2022-12-07T08:24:28;23.08;;;11.48;;
44564;SDS011;30275;51.822;-0.326;2022-12-07T08:26:54;24.73;;;11.65;;
44564;SDS011;30275;51.822;-0.326;2022-12-07T08:29:20;17.85;;;10.50;;
44564;SDS011;30275;51.822;-0.326;2022-12-07T08:31:45;21.63;;;11.32;;
44564;SDS011;30275;51.822;-0.326;2022-12-07T08:34:12;21.88;;;10.77;;
44564;SDS011;30275;51.822;-0.326;2022-12-07T08:36:38;28.65;;;12.30;;
44564;SDS011;30275;51.822;-0.326;2022-12-07T08:39:04;22.38;;;10.63;;
44564;SDS011;30275;51.822;-0.326;2022-12-07T08:41:30;20.02;;;9.80;;
44564;SDS011;30275;51.822;-0.326;2022-12-07T08:43:55;21.83;;;10.48;;
44564;SDS011;30275;51.822;-0.326;2022-12-07T08:46:23;17.73;;;9.30;;
44564;SDS011;30275;51.822;-0.326;2022-12-07T08:48:57;21.63;;;9.95;;
44564;SDS011;30275;51.822;-0.326;2022-12-07T08:51:27;20.88;;;9.88;;
44564;SDS011;30275;51.822;-0.326;2022-12-07T08:53:53;22.17;;;10.05;;
44564;SDS011;30275;51.822;-0.326;2022-12-07T08:56:20;25.45;;;10.35;;
44564;SDS011;30275;51.822;-0.326;2022-12-07T08:58:46;18.67;;;8.90;;
44564;SDS011;30275;51.822;-0.326;2022-12-07T09:01:13;17.45;;;9.10;;
44564;SDS011;30275;51.822;-0.326;2022-12-07T09:03:39;17.13;;;8.77;;
44564;SDS011;30275;51.822;-0.326;2022-12-07T09:06:05;16.23;;;8.43;;
44564;SDS011;30275;51.822;-0.326;2022-12-07T09:08:33;17.92;;;8.02;;
44564;SDS011;30275;51.822;-0.326;2022-12-07T09:11:04;15.23;;;7.35;;
44564;SDS011;30275;51.822;-0.326;2022-12-07T09:13:29;13.93;;;7.75;;
44564;SDS011;30275;51.822;-0.326;2022-12-07T09:15:55;15.80;;;7.90;;
44564;SDS011;30275;51.822;-0.326;2022-12-07T09:18:21;19.15;;;7.55;;
44564;SDS011;30275;51.822;-0.326;2022-12-07T09:20:46;14.95;;;7.63;;
44564;SDS011;30275;51.822;-0.326;2022-12-07T09:23:12;15.52;;;7.80;;
44564;SDS011;30275;51.822;-0.326;2022-12-07T09:25:37;13.60;;;7.57;;
44564;SDS011;30275;51.822;-0.326;2022-12-07T09:28:03;12.77;;;7.35;;
44564;SDS011;30275;51.822;-0.326;2022-12-07T09:30:29;11.63;;;7.28;;
44564;SDS011;30275;51.822;-0.326;2022-12-07T09:32:55;12.52;;;7.32;;
44564;SDS011;30275;51.822;-0.326;2022-12-07T09:35:22;12.60;;;7.00;;
44564;SDS011;30275;51.822;-0.326;2022-12-07T09:37:48;13.27;;;6.80;;
44564;SDS011;30275;51.822;-0.326;2022-12-07T09:40:15;10.98;;;6.57;;
44564;SDS011;30275;51.822;-0.326;2022-12-07T09:42:43;9.65;;;6.45;;
44564;SDS011;30275;51.822;-0.326;2022-12-07T09:45:14;12.43;;;6.85;;
44564;SDS011;30275;51.822;-0.326;2022-12-07T09:47:51;10.20;;;6.15;;
44564;SDS011;30275;51.822;-0.326;2022-12-07T09:50:24;13.50;;;6.93;;
44564;SDS011;30275;51.822;-0.326;2022-12-07T09:52:52;9.98;;;6.18;;
44564;SDS011;30275;51.822;-0.326;2022-12-07T09:55:26;10.65;;;5.63;;
44564;SDS011;30275;51.822;-0.326;2022-12-07T09:57:53;12.02;;;6.53;;
44564;SDS011;30275;51.822;-0.326;2022-12-07T10:00:21;8.15;;;5.53;;
44564;SDS011;30275;51.822;-0.326;2022-12-07T10:02:58;11.43;;;5.93;;
44564;SDS011;30275;51.822;-0.326;2022-12-07T10:05:35;10.48;;;5.38;;
44564;SDS011;30275;51.822;-0.326;2022-12-07T10:08:05;12.75;;;6.03;;
44564;SDS011;30275;51.822;-0.326;2022-12-07T10:10:34;9.13;;;4.53;;
44564;SDS011;30275;51.822;-0.326;2022-12-07T10:23:35;6.47;;;4.78;;
44564;SDS011;30275;51.822;-0.326;2022-12-07T10:28:53;9.23;;;4.90;;
44564;SDS011;30275;51.822;-0.326;2022-12-07T10:31:20;9.07;;;4.30;;
44564;SDS011;30275;51.822;-0.326;2022-12-07T10:33:52;8.52;;;4.68;;
44564;SDS011;30275;51.822;-0.326;2022-12-07T10:36:24;9.15;;;4.88;;
44564;SDS011;30275;51.822;-0.326;2022-12-07T10:42:01;8.43;;;4.90;;
44564;SDS011;30275;51.822;-0.326;2022-12-07T10:44:29;8.15;;;5.18;;
44564;SDS011;30275;51.822;-0.326;2022-12-07T10:47:00;8.02;;;4.97;;
44564;SDS011;30275;51.822;-0.326;2022-12-07T10:55:08;12.70;;;6.03;;
44564;SDS011;30275;51.822;-0.326;2022-12-07T10:57:59;10.75;;;6.32;;
44564;SDS011;30275;51.822;-0.326;2022-12-07T11:00:37;10.00;;;5.90;;
44564;SDS011;30275;51.822;-0.326;2022-12-07T11:08:30;9.38;;;5.85;;
44564;SDS011;30275;51.822;-0.326;2022-12-07T11:13:40;8.90;;;5.38;;
44564;SDS011;30275;51.822;-0.326;2022-12-07T11:16:19;12.93;;;5.85;;
44564;SDS011;30275;51.822;-0.326;2022-12-07T11:19:07;9.18;;;5.38;;
44564;SDS011;30275;51.822;-0.326;2022-12-07T11:21:56;11.20;;;5.28;;
44564;SDS011;30275;51.822;-0.326;2022-12-07T11:30:27;13.20;;;6.25;;
44564;SDS011;30275;51.822;-0.326;2022-12-07T11:38:41;10.85;;;5.28;;
44564;SDS011;30275;51.822;-0.326;2022-12-07T11:41:12;8.93;;;6.07;;
44564;SDS011;30275;51.822;-0.326;2022-12-07T11:43:42;8.60;;;5.00;;
44564;SDS011;30275;51.822;-0.326;2022-12-07T11:46:29;12.02;;;5.40;;
44564;SDS011;30275;51.822;-0.326;2022-12-07T11:51:52;9.50;;;6.22;;
44564;SDS011;30275;51.822;-0.326;2022-12-07T11:54:29;9.52;;;5.38;;
44564;SDS011;30275;51.822;-0.326;2022-12-07T11:57:01;6.82;;;3.80;;
44564;SDS011;30275;51.822;-0.326;2022-12-07T11:59:38;5.82;;;3.60;;
44564;SDS011;30275;51.822;-0.326;2022-12-07T12:02:15;8.18;;;4.28;;
44564;SDS011;30275;51.822;-0.326;2022-12-07T12:04:50;6.82;;;4.07;;
44564;SDS011;30275;51.822;-0.326;2022-12-07T12:07:17;7.25;;;3.58;;
44564;SDS011;30275;51.822;-0.326;2022-12-07T12:09:52;7.97;;;4.20;;
44564;SDS011;30275;51.822;-0.326;2022-12-07T12:15:13;5.40;;;3.15;;
44564;SDS011;30275;51.822;-0.326;2022-12-07T12:20:48;7.95;;;3.78;;
44564;SDS011;30275;51.822;-0.326;2022-12-07T12:23:35;7.78;;;3.35;;
44564;SDS011;30275;51.822;-0.326;2022-12-07T12:26:15;6.53;;;3.65;;
44564;SDS011;30275;51.822;-0.326;2022-12-07T12:28:58;5.80;;;3.30;;
44564;SDS011;30275;51.822;-0.326;2022-12-07T12:33:56;7.07;;;3.33;;
44564;SDS011;30275;51.822;-0.326;2022-12-07T12:47:02;4.90;;;3.28;;
44564;SDS011;30275;51.822;-0.326;2022-12-07T12:49:36;5.95;;;2.90;;
44564;SDS011;30275;51.822;-0.326;2022-12-07T12:54:57;7.05;;;3.38;;
44564;SDS011;30275;51.822;-0.326;2022-12-07T12:57:37;6.50;;;3.33;;
44564;SDS011;30275;51.822;-0.326;2022-12-07T13:00:15;7.65;;;4.20;;
44564;SDS011;30275;51.822;-0.326;2022-12-07T13:02:49;7.00;;;3.38;;
44564;SDS011;30275;51.822;-0.326;2022-12-07T13:05:23;6.10;;;3.03;;
44564;SDS011;30275;51.822;-0.326;2022-12-07T13:07:54;8.25;;;2.80;;
44564;SDS011;30275;51.822;-0.326;2022-12-07T13:12:58;5.80;;;3.30;;
44564;SDS011;30275;51.822;-0.326;2022-12-07T13:20:50;5.30;;;3.42;;
44564;SDS011;30275;51.822;-0.326;2022-12-07T13:26:15;9.05;;;3.75;;
44564;SDS011;30275;51.822;-0.326;2022-12-07T13:28:51;6.43;;;3.40;;
44564;SDS011;30275;51.822;-0.326;2022-12-07T13:34:02;7.38;;;3.80;;
44564;SDS011;30275;51.822;-0.326;2022-12-07T13:36:31;6.82;;;3.85;;
44564;SDS011;30275;51.822;-0.326;2022-12-07T13:39:22;4.88;;;3.20;;
44564;SDS011;30275;51.822;-0.326;2022-12-07T13:41:52;13.48;;;4.00;;
44564;SDS011;30275;51.822;-0.326;2022-12-07T13:44:20;7.45;;;3.88;;
44564;SDS011;30275;51.822;-0.326;2022-12-07T13:49:16;11.40;;;3.35;;
44564;SDS011;30275;51.822;-0.326;2022-12-07T13:51:43;9.05;;;3.60;;
44564;SDS011;30275;51.822;-0.326;2022-12-07T13:54:09;8.27;;;4.38;;
44564;SDS011;30275;51.822;-0.326;2022-12-07T13:56:36;9.88;;;5.00;;
44564;SDS011;30275;51.822;-0.326;2022-12-07T13:59:04;6.40;;;3.60;;
44564;SDS011;30275;51.822;-0.326;2022-12-07T14:01:35;7.00;;;3.30;;
44564;SDS011;30275;51.822;-0.326;2022-12-07T14:07:22;8.73;;;4.57;;
44564;SDS011;30275;51.822;-0.326;2022-12-07T14:09:59;6.60;;;4.22;;
44564;SDS011;30275;51.822;-0.326;2022-12-07T14:12:27;8.73;;;4.35;;
44564;SDS011;30275;51.822;-0.326;2022-12-07T14:14:54;6.60;;;3.65;;
44564;SDS011;30275;51.822;-0.326;2022-12-07T14:17:21;8.70;;;4.80;;
44564;SDS011;30275;51.822;-0.326;2022-12-07T14:19:53;8.57;;;3.50;;
44564;SDS011;30275;51.822;-0.326;2022-12-07T14:24:48;9.45;;;3.72;;
44564;SDS011;30275;51.822;-0.326;2022-12-07T14:27:21;7.40;;;4.15;;
44564;SDS011;30275;51.822;-0.326;2022-12-07T14:29:50;5.78;;;3.65;;
44564;SDS011;30275;51.822;-0.326;2022-12-07T14:32:27;10.15;;;4.35;;
44564;SDS011;30275;51.822;-0.326;2022-12-07T14:34:58;13.43;;;4.63;;
44564;SDS011;30275;51.822;-0.326;2022-12-07T14:37:24;8.85;;;3.80;;
44564;SDS011;30275;51.822;-0.326;2022-12-07T14:39:49;9.82;;;4.30;;
44564;SDS011;30275;51.822;-0.326;2022-12-07T14:42:15;8.43;;;4.05;;
44564;SDS011;30275;51.822;-0.326;2022-12-07T14:44:41;5.90;;;3.85;;
44564;SDS011;30275;51.822;-0.326;2022-12-07T14:47:10;8.27;;;3.92;;
44564;SDS011;30275;51.822;-0.326;2022-12-07T14:49:36;8.68;;;4.07;;
44564;SDS011;30275;51.822;-0.326;2022-12-07T14:52:02;11.82;;;4.13;;
44564;SDS011;30275;51.822;-0.326;2022-12-07T14:54:30;8.43;;;3.78;;
44564;SDS011;30275;51.822;-0.326;2022-12-07T14:56:57;9.77;;;3.90;;
44564;SDS011;30275;51.822;-0.326;2022-12-07T14:59:23;10.27;;;4.72;;
44564;SDS011;30275;51.822;-0.326;2022-12-07T15:01:49;8.10;;;4.47;;
44564;SDS011;30275;51.822;-0.326;2022-12-07T15:04:17;8.65;;;4.20;;
44564;SDS011;30275;51.822;-0.326;2022-12-07T15:06:53;9.45;;;4.70;;
44564;SDS011;30275;51.822;-0.326;2022-12-07T15:09:23;6.78;;;3.90;;
44564;SDS011;30275;51.822;-0.326;2022-12-07T15:11:49;7.88;;;4.85;;
44564;SDS011;30275;51.822;-0.326;2022-12-07T15:14:14;10.23;;;4.45;;
44564;SDS011;30275;51.822;-0.326;2022-12-07T15:16:41;9.60;;;4.78;;
44564;SDS011;30275;51.822;-0.326;2022-12-07T15:19:17;9.05;;;4.82;;
44564;SDS011;30275;51.822;-0.326;2022-12-07T15:21:45;8.63;;;4.60;;
44564;SDS011;30275;51.822;-0.326;2022-12-07T15:24:11;8.50;;;4.97;;
44564;SDS011;30275;51.822;-0.326;2022-12-07T15:26:38;14.02;;;4.88;;
44564;SDS011;30275;51.822;-0.326;2022-12-07T15:29:04;9.88;;;4.65;;
44564;SDS011;30275;51.822;-0.326;2022-12-07T15:31:31;8.90;;;5.10;;
44564;SDS011;30275;51.822;-0.326;2022-12-07T15:33:57;13.88;;;5.28;;
44564;SDS011;30275;51.822;-0.326;2022-12-07T15:36:24;10.57;;;5.85;;
44564;SDS011;30275;51.822;-0.326;2022-12-07T15:38:51;10.45;;;5.13;;
44564;SDS011;30275;51.822;-0.326;2022-12-07T15:41:17;9.77;;;5.07;;
44564;SDS011;30275;51.822;-0.326;2022-12-07T15:43:43;11.63;;;6.00;;
44564;SDS011;30275;51.822;-0.326;2022-12-07T15:46:31;11.15;;;5.18;;
44564;SDS011;30275;51.822;-0.326;2022-12-07T15:48:58;7.72;;;5.03;;
44564;SDS011;30275;51.822;-0.326;2022-12-07T15:51:24;10.32;;;5.20;;
44564;SDS011;30275;51.822;-0.326;2022-12-07T15:53:50;8.95;;;6.00;;
44564;SDS011;30275;51.822;-0.326;2022-12-07T15:56:16;11.55;;;5.22;;
44564;SDS011;30275;51.822;-0.326;2022-12-07T15:58:41;13.88;;;6.45;;
44564;SDS011;30275;51.822;-0.326;2022-12-07T16:01:11;8.63;;;5.57;;
44564;SDS011;30275;51.822;-0.326;2022-12-07T16:03:38;15.73;;;5.72;;
44564;SDS011;30275;51.822;-0.326;2022-12-07T16:06:03;14.02;;;5.97;;
44564;SDS011;30275;51.822;-0.326;2022-12-07T16:08:29;11.80;;;5.93;;
44564;SDS011;30275;51.822;-0.326;2022-12-07T16:10:55;9.90;;;6.20;;
44564;SDS011;30275;51.822;-0.326;2022-12-07T16:13:20;11.40;;;6.32;;
44564;SDS011;30275;51.822;-0.326;2022-12-07T16:15:46;11.25;;;5.93;;
44564;SDS011;30275;51.822;-0.326;2022-12-07T16:18:12;9.60;;;6.53;;
44564;SDS011;30275;51.822;-0.326;2022-12-07T16:20:37;11.73;;;6.93;;
44564;SDS011;30275;51.822;-0.326;2022-12-07T16:23:03;9.55;;;5.63;;
44564;SDS011;30275;51.822;-0.326;2022-12-07T16:25:29;14.48;;;6.15;;
44564;SDS011;30275;51.822;-0.326;2022-12-07T16:27:54;14.77;;;5.93;;
44564;SDS011;30275;51.822;-0.326;2022-12-07T16:30:20;14.23;;;6.25;;
44564;SDS011;30275;51.822;-0.326;2022-12-07T16:32:45;9.90;;;5.82;;